Time;durP1;ratioP1;P1;durP2;ratioP2;P2;SDS_P1;SDS_P2;PMS_P1;PMS_P2;Temp;Humidity;BMP_temperature;BMP_pressure;BME280_temperature;BME280_humidity;BME280_pressure;Samples;Min_cycle;Max_cycle;Signal;HPM_P1;HPM_P2
2022/02/21 00:00:45;;;;;;;0.17;0.17;;;9.10;99.90;9.10;98536.00;;;;4916877;28;93137;-66
2022/02/21 00:03:11;;;;;;;0.10;0.10;;;9.10;99.90;9.20;98511.00;;;;4918463;28;110787;-65
2022/02/21 00:05:37;;;;;;;1.20;0.20;;;9.20;99.90;9.30;98512.00;;;;4916800;28;93947;-65
2022/02/21 00:08:03;;;;;;;0.10;0.10;;;9.30;99.90;9.40;98499.00;;;;4916463;28;107560;-65
2022/02/21 00:10:29;;;;;;;0.30;0.30;;;9.40;99.90;9.50;98499.00;;;;4916503;28;104501;-65
2022/02/21 00:12:55;;;;;;;0.10;0.10;;;9.50;99.90;9.50;98494.00;;;;4916234;28;100920;-65
2022/02/21 00:15:23;;;;;;;0.20;0.20;;;9.50;99.90;9.60;98481.00;;;;4917086;28;92820;-65
2022/02/21 00:17:51;;;;;;;0.20;0.20;;;9.60;99.90;9.60;98487.00;;;;4916956;28;93776;-65
2022/02/21 00:20:17;;;;;;;5.27;0.57;;;9.60;99.90;9.70;98487.00;;;;4913430;28;113809;-65
2022/02/21 00:22:43;;;;;;;0.93;0.43;;;9.70;99.90;9.80;98472.00;;;;4917157;28;91988;-65
2022/02/21 00:25:10;;;;;;;1.03;0.23;;;9.80;99.90;9.80;98461.00;;;;4935367;28;110044;-65
2022/02/21 00:27:36;;;;;;;1.83;0.30;;;9.80;99.90;9.90;98452.00;;;;4936288;28;100441;-65
2022/02/21 00:30:04;;;;;;;0.30;0.20;;;9.90;99.90;9.90;98447.00;;;;4933097;28;93951;-65
2022/02/21 00:32:29;;;;;;;0.70;0.27;;;9.90;99.90;9.90;98447.00;;;;4935573;28;98256;-65
2022/02/21 00:34:55;;;;;;;0.50;0.40;;;10.00;99.90;10.00;98410.00;;;;4934719;28;110721;-65
2022/02/21 00:37:21;;;;;;;0.30;0.20;;;10.00;99.90;10.00;98419.00;;;;4953210;28;93315;-66
2022/02/21 00:39:47;;;;;;;0.23;0.20;;;10.10;99.90;10.10;98401.00;;;;4935100;28;123490;-66
2022/02/21 00:42:13;;;;;;;0.63;0.33;;;10.10;99.90;10.10;98384.00;;;;4935637;28;108397;-65
2022/02/21 00:44:39;;;;;;;0.20;0.20;;;10.10;99.90;10.20;98384.00;;;;4935062;28;92791;-66
2022/02/21 00:47:06;;;;;;;0.20;0.20;;;10.20;99.90;10.20;98383.00;;;;4935178;28;92754;-66
2022/02/21 00:49:32;;;;;;;0.63;0.30;;;10.20;99.90;10.20;98391.00;;;;4915836;28;93040;-66
2022/02/21 00:51:58;;;;;;;2.30;0.40;;;10.20;99.90;10.30;98371.00;;;;4916574;28;109344;-66
2022/02/21 00:54:29;;;;;;;0.27;0.27;;;10.30;99.90;10.30;98373.00;;;;4926575;28;93944;-66
2022/02/21 00:56:54;;;;;;;0.43;0.33;;;10.30;99.90;10.30;98354.00;;;;4936210;28;93618;-66
2022/02/21 00:59:20;;;;;;;0.50;0.20;;;10.30;99.90;10.40;98338.00;;;;4926552;28;123313;-66
2022/02/21 01:01:46;;;;;;;0.30;0.30;;;10.30;99.90;10.40;98348.00;;;;4916746;28;92808;-65
2022/02/21 01:04:12;;;;;;;1.53;0.37;;;10.40;99.90;10.40;98325.00;;;;4916246;28;108085;-65
2022/02/21 01:06:37;;;;;;;1.03;0.47;;;10.40;99.90;10.40;98321.00;;;;4915142;28;122879;-65
2022/02/21 01:09:03;;;;;;;0.50;0.40;;;10.40;99.90;10.40;98318.00;;;;4914412;28;121957;-66
2022/02/21 01:11:30;;;;;;;0.73;0.30;;;10.40;99.90;10.50;98308.00;;;;4915916;28;95318;-66
2022/02/21 01:13:58;;;;;;;0.30;0.30;;;10.50;99.90;10.50;98272.00;;;;4922977;28;92947;-65
2022/02/21 01:16:24;;;;;;;1.60;0.63;;;10.50;99.90;10.50;98273.00;;;;4934623;28;93922;-65
2022/02/21 01:18:51;;;;;;;1.43;0.57;;;10.50;99.90;10.60;98286.00;;;;4926573;28;94305;-65
2022/02/21 01:21:17;;;;;;;0.70;0.40;;;10.60;99.90;10.60;98269.00;;;;4914608;28;101097;-65
2022/02/21 01:23:46;;;;;;;2.03;0.70;;;10.60;99.90;10.60;98266.00;;;;4922800;28;108103;-65
2022/02/21 01:26:12;;;;;;;1.77;0.30;;;10.70;99.90;10.60;98262.00;;;;4934952;28;121209;-66
2022/02/21 01:28:37;;;;;;;1.00;0.50;;;10.60;99.90;10.70;98270.00;;;;4935058;28;95416;-65
2022/02/21 01:31:03;;;;;;;2.43;0.40;;;10.60;99.90;10.60;98254.00;;;;4934883;28;109341;-66
2022/02/21 01:33:29;;;;;;;0.93;0.50;;;10.60;99.90;10.60;98230.00;;;;4934225;28;109257;-65
2022/02/21 01:35:56;;;;;;;0.57;0.30;;;10.60;99.90;10.70;98237.00;;;;4935296;28;93012;-66
2022/02/21 01:38:22;;;;;;;1.53;0.77;;;10.70;99.90;10.70;98227.00;;;;4932817;28;108883;-65
2022/02/21 01:40:48;;;;;;;1.07;0.40;;;10.70;99.90;10.80;98224.00;;;;4935624;28;93015;-65
2022/02/21 01:43:14;;;;;;;0.90;0.27;;;10.70;99.90;10.80;98231.00;;;;4932723;28;106873;-65
2022/02/21 01:45:39;;;;;;;0.37;0.37;;;10.80;99.90;10.80;98222.00;;;;4933436;28;122685;-66
2022/02/21 01:48:05;;;;;;;1.00;0.50;;;10.80;99.90;10.80;98213.00;;;;4916213;28;122963;-64
2022/02/21 01:50:31;;;;;;;2.13;0.50;;;10.90;99.90;10.80;98218.00;;;;4934161;28;110022;-65
2022/02/21 01:52:58;;;;;;;1.53;0.60;;;10.80;99.90;10.80;98204.00;;;;4933779;28;108708;-65
2022/02/21 01:55:25;;;;;;;3.63;0.47;;;10.80;99.90;10.80;98207.00;;;;4932300;28;93880;-65
2022/02/21 01:57:51;;;;;;;0.40;0.33;;;10.80;99.90;10.80;98196.00;;;;4934053;28;114744;-65
2022/02/21 02:00:17;;;;;;;0.47;0.17;;;10.80;99.90;10.80;98193.00;;;;4933940;28;100417;-66
2022/02/21 02:02:46;;;;;;;0.50;0.43;;;10.80;99.90;10.80;98200.00;;;;4933013;28;97504;-65
2022/02/21 02:05:13;;;;;;;0.20;0.20;;;10.80;99.90;10.90;98177.00;;;;4933925;28;93754;-65
2022/02/21 02:07:40;;;;;;;0.83;0.40;;;10.90;99.90;10.90;98168.00;;;;4934134;28;93974;-65
2022/02/21 02:10:07;;;;;;;0.30;0.30;;;10.90;99.90;10.90;98172.00;;;;4934060;28;93024;-65
2022/02/21 02:12:33;;;;;;;0.43;0.20;;;10.90;99.90;11.00;98154.00;;;;4934685;28;92980;-65
2022/02/21 02:14:59;;;;;;;2.00;0.30;;;11.00;99.90;11.00;98153.00;;;;4917556;28;94295;-65
2022/02/21 02:17:25;;;;;;;0.20;0.20;;;11.00;99.90;11.00;98151.00;;;;4928585;28;94136;-66
2022/02/21 02:19:51;;;;;;;0.30;0.30;;;11.00;99.90;11.10;98161.00;;;;4935066;28;110630;-67
2022/02/21 02:22:20;;;;;;;0.53;0.40;;;11.10;99.90;11.10;98151.00;;;;4934596;28;93087;-67
2022/02/21 02:24:52;;;;;;;0.10;0.10;;;11.10;99.90;11.10;98144.00;;;;4931536;28;101287;-67
2022/02/21 02:27:19;;;;;;;0.27;0.20;;;11.10;99.90;11.10;98155.00;;;;4931250;28;92922;-67
2022/02/21 02:29:48;;;;;;;1.93;0.20;;;11.10;99.90;11.10;98159.00;;;;4934074;28;92881;-67
2022/02/21 02:32:15;;;;;;;0.87;0.37;;;11.10;99.90;11.10;98149.00;;;;4934390;28;93906;-68
2022/02/21 02:34:44;;;;;;;0.47;0.40;;;11.10;99.90;11.10;98169.00;;;;4934439;28;93004;-67
2022/02/21 02:37:11;;;;;;;1.60;0.30;;;11.10;99.90;11.00;98135.00;;;;4934396;28;94291;-66
2022/02/21 02:39:37;;;;;;;0.67;0.40;;;11.10;99.90;11.00;98129.00;;;;4932809;28;92739;-65
2022/02/21 02:42:04;;;;;;;0.10;0.10;;;11.10;99.90;11.00;98144.00;;;;4917921;28;102449;-66
2022/02/21 02:44:30;;;;;;;0.30;0.30;;;11.10;99.90;11.10;98139.00;;;;4913250;28;108081;-67
2022/02/21 02:46:56;;;;;;;0.83;0.20;;;11.10;99.90;11.00;98135.00;;;;4912967;28;94874;-66
2022/02/21 02:49:22;;;;;;;0.37;0.37;;;11.10;99.90;11.00;98129.00;;;;4915087;28;91951;-67
2022/02/21 02:51:48;;;;;;;0.17;0.17;;;11.10;99.90;11.00;98106.00;;;;4912526;28;99826;-67
2022/02/21 02:54:13;;;;;;;1.07;0.43;;;11.10;99.90;11.00;98120.00;;;;4919284;28;121715;-66
2022/02/21 02:56:41;;;;;;;0.73;0.37;;;11.00;99.90;11.00;98110.00;;;;4929177;28;113001;-66
2022/02/21 02:59:08;;;;;;;1.50;0.37;;;11.00;99.90;10.90;98097.00;;;;4925276;28;92719;-65
2022/02/21 03:01:35;;;;;;;0.23;0.20;;;11.00;99.90;10.90;98099.00;;;;4915667;28;92882;-66
2022/02/21 03:04:04;;;;;;;0.30;0.30;;;10.90;99.90;10.90;98097.00;;;;4919497;28;95108;-66
2022/02/21 03:06:29;;;;;;;1.70;0.37;;;10.90;99.90;10.90;98094.00;;;;4919980;28;93480;-65
2022/02/21 03:08:55;;;;;;;0.10;0.10;;;11.00;99.90;10.90;98084.00;;;;4914570;28;92989;-66
2022/02/21 03:11:21;;;;;;;0.10;0.10;;;11.00;99.90;10.90;98073.00;;;;4914708;28;92967;-65
2022/02/21 03:13:47;;;;;;;0.20;0.20;;;11.00;99.90;10.90;98079.00;;;;4912115;28;101224;-66
2022/02/21 03:16:13;;;;;;;0.50;0.33;;;10.60;99.90;10.90;98076.00;;;;4913055;28;121684;-65
2022/02/21 03:18:38;;;;;;;0.20;0.20;;;10.90;99.90;10.90;98075.00;;;;4913679;28;111248;-65
2022/02/21 03:21:04;;;;;;;0.27;0.27;;;11.00;99.90;10.90;98067.00;;;;4913221;28;108530;-66
2022/02/21 03:23:30;;;;;;;0.57;0.23;;;11.00;99.90;10.90;98085.00;;;;4927753;28;93276;-66
2022/02/21 03:25:56;;;;;;;0.17;0.17;;;10.90;99.90;10.90;98082.00;;;;4932751;28;93832;-66
2022/02/21 03:28:21;;;;;;;0.87;0.20;;;10.90;99.90;11.00;98101.00;;;;4933017;28;109688;-66
2022/02/21 03:30:48;;;;;;;0.40;0.20;;;11.00;99.90;10.90;98072.00;;;;4933459;28;93292;-66
2022/02/21 03:33:14;;;;;;;0.43;0.20;;;11.00;99.90;10.90;98067.00;;;;4930931;28;109456;-66
2022/02/21 03:35:41;;;;;;;0.50;0.10;;;10.90;99.90;10.90;98082.00;;;;4910714;28;124704;-65
2022/02/21 03:38:06;;;;;;;0.10;0.10;;;10.90;99.90;10.80;98119.00;;;;4915146;28;110120;-65
2022/02/21 03:40:32;;;;;;;0.87;0.30;;;10.90;99.90;10.40;98161.00;;;;4925730;28;93055;-66
2022/02/21 03:42:58;;;;;;;0.10;0.10;;;10.60;99.90;9.90;98239.00;;;;4932109;28;122156;-64
2022/02/21 03:45:24;;;;;;;0.20;0.17;;;10.20;99.90;9.30;98245.00;;;;4946932;28;93778;-66
2022/02/21 03:47:51;;;;;;;0.10;0.10;;;9.70;99.90;8.90;98195.00;;;;4934455;28;110815;-66
2022/02/21 03:50:17;;;;;;;0.10;0.10;;;9.20;99.90;8.40;98200.00;;;;4927198;28;92551;-66
2022/02/21 03:52:43;;;;;;;0.10;0.10;;;8.80;99.90;8.00;98146.00;;;;4912980;28;122086;-63
2022/02/21 03:55:10;;;;;;;0.70;0.20;;;8.40;99.90;7.80;98172.00;;;;4913516;28;122082;-65
2022/02/21 03:57:36;;;;;;;0.17;0.17;;;8.10;99.90;7.50;98161.00;;;;4917854;28;92762;-65
2022/02/21 04:00:06;;;;;;;1.23;0.30;;;7.80;99.90;7.40;98175.00;;;;4916512;28;99489;-65
2022/02/21 04:02:32;;;;;;;0.00;0.00;;;7.70;99.90;7.20;98184.00;;;;4917876;28;93103;-65
2022/02/21 04:05:00;;;;;;;0.27;0.10;;;7.50;99.90;7.20;98163.00;;;;4932978;28;121461;-65
2022/02/21 04:07:27;;;;;;;0.10;0.10;;;7.40;99.90;7.10;98177.00;;;;4937121;28;92935;-65
2022/02/21 04:09:53;;;;;;;0.10;0.10;;;7.30;99.90;7.10;98176.00;;;;4934659;28;93861;-65
2022/02/21 04:12:19;;;;;;;0.33;0.20;;;7.20;99.90;7.20;98166.00;;;;4936121;28;113182;-64
2022/02/21 04:14:45;;;;;;;3.60;0.27;;;7.20;99.90;7.20;98176.00;;;;4934517;28;113328;-65
2022/02/21 04:17:11;;;;;;;1.20;0.30;;;7.30;99.90;7.30;98193.00;;;;4937687;28;100900;-65
2022/02/21 04:19:36;;;;;;;0.50;0.30;;;7.40;99.90;7.30;98199.00;;;;4930201;28;109008;-65
2022/02/21 04:22:03;;;;;;;0.83;0.20;;;7.40;99.90;7.40;98211.00;;;;4928957;28;122850;-65
2022/02/21 04:24:28;;;;;;;0.10;0.10;;;7.40;99.90;7.50;98217.00;;;;4915701;28;113080;-65
2022/02/21 04:26:54;;;;;;;0.10;0.10;;;7.50;99.90;7.50;98221.00;;;;4918050;28;92096;-65
2022/02/21 04:29:20;;;;;;;0.77;0.30;;;7.60;99.90;7.60;98204.00;;;;4916926;28;110012;-65
2022/02/21 04:31:46;;;;;;;0.10;0.10;;;7.60;99.90;7.60;98176.00;;;;4930938;28;112533;-64
2022/02/21 04:34:11;;;;;;;2.00;0.20;;;7.90;99.90;7.70;98193.00;;;;4915734;28;121932;-65
2022/02/21 04:36:38;;;;;;;0.10;0.10;;;7.70;99.90;7.70;98222.00;;;;4916562;28;110988;-64
2022/02/21 04:39:06;;;;;;;0.70;0.30;;;7.90;99.90;7.70;98255.00;;;;4918461;28;92933;-65
2022/02/21 04:41:32;;;;;;;0.53;0.40;;;7.80;99.90;7.80;98234.00;;;;4916797;28;94196;-65
2022/02/21 04:43:57;;;;;;;0.23;0.20;;;7.90;99.90;7.80;98219.00;;;;4917018;28;93338;-64
2022/02/21 04:46:23;;;;;;;0.10;0.10;;;7.90;99.90;7.80;98229.00;;;;4928210;28;110272;-64
2022/02/21 04:48:49;;;;;;;0.23;0.23;;;7.90;99.90;7.80;98220.00;;;;4935393;28;98503;-65
2022/02/21 04:51:14;;;;;;;0.50;0.10;;;7.80;99.90;7.80;98231.00;;;;4946293;28;121626;-65
2022/02/21 04:53:41;;;;;;;0.20;0.20;;;7.80;99.90;7.80;98232.00;;;;4916010;28;114175;-66
2022/02/21 04:56:06;;;;;;;0.10;0.10;;;7.90;99.90;7.80;98229.00;;;;4920410;28;93182;-65
2022/02/21 04:58:32;;;;;;;0.70;0.23;;;7.90;99.90;7.80;98228.00;;;;4917242;28;94017;-65
2022/02/21 05:00:58;;;;;;;0.50;0.20;;;7.90;99.90;7.70;98232.00;;;;4915431;28;122836;-65
2022/02/21 05:03:23;;;;;;;1.07;0.30;;;7.80;99.90;7.70;98234.00;;;;4915507;28;122482;-65
2022/02/21 05:05:49;;;;;;;0.20;0.20;;;8.00;99.90;7.70;98236.00;;;;4916928;28;110185;-65
2022/02/21 05:08:15;;;;;;;1.67;0.33;;;7.80;99.90;7.70;98241.00;;;;4913854;28;108094;-65
2022/02/21 05:10:40;;;;;;;0.20;0.20;;;7.80;99.90;7.70;98254.00;;;;4931380;28;115899;-65
2022/02/21 05:13:09;;;;;;;0.10;0.10;;;7.80;99.90;7.70;98260.00;;;;4929588;28;122456;-65
2022/02/21 05:15:34;;;;;;;0.47;0.27;;;8.00;99.90;7.70;98268.00;;;;4915283;28;110440;-64
2022/02/21 05:18:00;;;;;;;0.30;0.27;;;7.80;99.90;7.70;98270.00;;;;4915598;28;109059;-65
2022/02/21 05:20:26;;;;;;;0.30;0.30;;;7.80;99.90;7.70;98283.00;;;;4916424;28;93187;-65
2022/02/21 05:22:51;;;;;;;0.10;0.10;;;7.80;99.90;7.70;98292.00;;;;4914221;28;123366;-65
2022/02/21 05:25:18;;;;;;;0.10;0.10;;;7.80;99.90;7.70;98293.00;;;;4915456;28;108610;-65
2022/02/21 05:27:43;;;;;;;0.83;0.13;;;7.80;99.90;7.70;98315.00;;;;4916191;28;92718;-65
2022/02/21 05:30:11;;;;;;;0.27;0.20;;;7.70;99.90;7.70;98310.00;;;;4915908;28;124500;-65
2022/02/21 05:32:36;;;;;;;0.20;0.20;;;7.70;99.90;7.70;98314.00;;;;4915257;28;94118;-66
2022/02/21 05:35:03;;;;;;;0.93;0.37;;;7.80;99.90;7.70;98326.00;;;;4915108;28;110450;-66
2022/02/21 05:37:29;;;;;;;0.40;0.40;;;7.70;99.90;7.60;98326.00;;;;4916312;28;92861;-65
2022/02/21 05:39:54;;;;;;;0.13;0.13;;;8.20;99.90;7.70;98335.00;;;;4916101;28;121369;-66
2022/02/21 05:42:21;;;;;;;0.30;0.20;;;7.70;99.90;7.60;98324.00;;;;4930917;28;120004;-66
2022/02/21 05:44:47;;;;;;;0.33;0.33;;;7.70;99.90;7.60;98329.00;;;;4933857;28;110444;-66
2022/02/21 05:47:13;;;;;;;0.20;0.20;;;8.10;99.90;7.60;98333.00;;;;4934087;28;93866;-65
2022/02/21 05:49:39;;;;;;;0.10;0.10;;;7.60;99.90;7.60;98338.00;;;;4933175;28;93945;-65
2022/02/21 05:52:05;;;;;;;0.30;0.30;;;7.70;99.90;7.60;98333.00;;;;4934358;28;93067;-65
2022/02/21 05:54:31;;;;;;;5.23;0.27;;;7.70;99.90;7.60;98342.00;;;;4934680;28;92815;-65
2022/02/21 05:56:57;;;;;;;1.57;0.40;;;7.70;99.90;7.70;98360.00;;;;4934006;28;109491;-65
2022/02/21 05:59:23;;;;;;;0.00;0.00;;;8.20;99.90;7.70;98355.00;;;;4930203;28;121160;-65
2022/02/21 06:01:49;;;;;;;1.20;0.40;;;7.70;99.90;7.70;98344.00;;;;4914060;28;122322;-65
2022/02/21 06:04:15;;;;;;;0.33;0.33;;;7.80;99.90;7.70;98320.00;;;;4916651;28;91971;-65
2022/02/21 06:06:41;;;;;;;0.30;0.30;;;7.70;99.90;7.60;98330.00;;;;4914218;28;107236;-66
2022/02/21 06:09:07;;;;;;;0.13;0.10;;;7.70;99.90;7.60;98335.00;;;;4926563;28;93255;-66
2022/02/21 06:11:33;;;;;;;0.20;0.20;;;7.70;99.90;7.50;98338.00;;;;4934201;28;93957;-66
2022/02/21 06:13:58;;;;;;;0.27;0.27;;;7.60;99.90;7.50;98359.00;;;;4929934;28;92837;-67
2022/02/21 06:16:24;;;;;;;0.20;0.20;;;7.60;99.90;7.40;98353.00;;;;4926773;28;92670;-67
2022/02/21 06:18:50;;;;;;;0.23;0.20;;;7.40;99.90;7.40;98355.00;;;;4929143;28;92998;-66
2022/02/21 06:21:16;;;;;;;0.77;0.37;;;7.50;99.90;7.30;98371.00;;;;4915042;28;103718;-67
2022/02/21 06:23:41;;;;;;;0.20;0.20;;;7.40;99.90;7.30;98371.00;;;;4920405;28;110326;-66
2022/02/21 06:26:07;;;;;;;0.30;0.30;;;7.30;99.90;7.30;98384.00;;;;4920136;28;107956;-67
2022/02/21 06:28:33;;;;;;;1.03;0.30;;;7.40;99.90;7.30;98401.00;;;;4915598;28;120555;-67
2022/02/21 06:30:59;;;;;;;2.23;0.47;;;7.40;99.90;7.30;98394.00;;;;4916696;28;95061;-67
2022/02/21 06:33:25;;;;;;;0.30;0.27;;;7.30;99.90;7.30;98414.00;;;;4928791;28;111192;-67
2022/02/21 06:35:50;;;;;;;0.30;0.30;;;7.40;99.90;7.30;98415.00;;;;4932020;28;94299;-67
2022/02/21 06:38:16;;;;;;;1.40;0.40;;;7.30;99.90;7.30;98417.00;;;;4912988;28;93554;-66
2022/02/21 06:40:42;;;;;;;0.53;0.37;;;7.80;99.90;7.30;98427.00;;;;4914607;28;93168;-66
2022/02/21 06:43:08;;;;;;;0.70;0.20;;;7.60;99.90;7.20;98442.00;;;;4916229;28;95352;-66
2022/02/21 06:45:34;;;;;;;0.27;0.13;;;7.90;99.90;7.10;98425.00;;;;4934119;28;92634;-66
2022/02/21 06:48:00;;;;;;;0.17;0.17;;;7.20;99.90;7.00;98425.00;;;;4931813;28;122742;-67
2022/02/21 06:50:26;;;;;;;0.37;0.30;;;7.40;99.90;6.90;98431.00;;;;4922059;28;122634;-67
2022/02/21 06:52:53;;;;;;;0.23;0.20;;;7.00;99.90;6.70;98435.00;;;;4934617;28;92082;-66
2022/02/21 06:55:19;;;;;;;2.33;0.63;;;7.40;99.90;6.60;98437.00;;;;4934901;28;93373;-66
2022/02/21 06:57:47;;;;;;;0.30;0.30;;;6.80;99.90;6.50;98449.00;;;;4934430;28;93293;-66
2022/02/21 07:00:15;;;;;;;0.57;0.33;;;7.20;99.90;6.50;98443.00;;;;4929745;28;93772;-66
2022/02/21 07:02:41;;;;;;;2.13;0.60;;;6.60;99.90;6.50;98437.00;;;;4915963;28;93121;-66
2022/02/21 07:05:09;;;;;;;3.73;0.67;;;6.60;99.90;6.50;98443.00;;;;4914074;28;93014;-66
2022/02/21 07:07:35;;;;;;;1.30;0.50;;;6.60;99.90;6.50;98455.00;;;;4912396;28;109444;-67
2022/02/21 07:10:03;;;;;;;1.57;0.77;;;6.60;98.80;6.50;98461.00;;;;4921432;28;109484;-67
2022/02/21 07:12:28;;;;;;;0.73;0.53;;;7.20;99.00;6.50;98477.00;;;;4934134;28;93031;-66
2022/02/21 07:14:54;;;;;;;7.60;0.77;;;6.60;98.80;6.60;98500.00;;;;4933664;28;92881;-66
2022/02/21 07:17:35;;;;;;;0.43;0.40;;;6.60;99.10;6.60;98473.00;;;;4930617;28;115026;-67
2022/02/21 07:20:01;;;;;;;1.83;0.73;;;6.80;98.20;6.60;98482.00;;;;4933945;28;107652;-67
2022/02/21 07:22:27;;;;;;;1.17;0.70;;;6.80;97.50;6.50;98485.00;;;;4940513;28;97060;-67
2022/02/21 07:24:52;;;;;;;1.00;0.60;;;7.20;97.80;6.50;98502.00;;;;4932515;28;109520;-67
2022/02/21 07:27:18;;;;;;;8.80;0.40;;;6.70;97.90;6.50;98494.00;;;;4933398;28;123491;-67
2022/02/21 07:29:44;;;;;;;4.53;0.73;;;6.60;97.90;6.60;98488.00;;;;4930569;28;93923;-66
2022/02/21 07:32:09;;;;;;;0.77;0.70;;;6.70;97.30;6.80;98499.00;;;;4917414;28;109687;-66
2022/02/21 07:34:35;;;;;;;0.40;0.30;;;7.10;97.40;7.00;98496.00;;;;4916678;28;109384;-67
2022/02/21 07:37:01;;;;;;;0.77;0.50;;;7.00;96.80;7.10;98525.00;;;;4916560;28;123252;-67
2022/02/21 07:39:30;;;;;;;0.47;0.30;;;7.20;96.80;7.30;98520.00;;;;4916440;28;123296;-66
2022/02/21 07:41:57;;;;;;;0.33;0.33;;;7.30;96.30;7.30;98518.00;;;;4918513;28;92216;-66
2022/02/21 07:44:23;;;;;;;1.30;0.60;;;7.40;94.10;7.30;98524.00;;;;4917131;28;93049;-66
2022/02/21 07:46:49;;;;;;;1.60;0.40;;;7.40;93.70;7.40;98489.00;;;;4917595;28;111149;-67
2022/02/21 07:49:15;;;;;;;0.40;0.27;;;7.50;93.30;7.60;98519.00;;;;4916532;28;93510;-66
2022/02/21 07:51:41;;;;;;;0.33;0.20;;;7.70;92.40;7.70;98547.00;;;;4930615;28;109635;-66
2022/02/21 07:54:06;;;;;;;3.10;0.67;;;7.50;90.70;7.60;98573.00;;;;4936067;28;109006;-66
2022/02/21 07:56:32;;;;;;;0.77;0.43;;;7.70;89.90;7.50;98553.00;;;;4936467;28;93901;-66
2022/02/21 07:58:58;;;;;;;0.73;0.50;;;8.20;89.10;7.40;98574.00;;;;4935515;28;122912;-66
2022/02/21 08:01:23;;;;;;;0.50;0.40;;;8.10;88.10;7.10;98576.00;;;;4936643;28;92696;-66
2022/02/21 08:03:49;;;;;;;0.40;0.40;;;7.40;88.30;7.00;98587.00;;;;4936684;28;92848;-66
2022/02/21 08:06:15;;;;;;;0.47;0.40;;;7.20;90.00;6.80;98594.00;;;;4928923;28;98958;-66
2022/02/21 08:08:41;;;;;;;0.33;0.30;;;7.00;90.80;6.60;98591.00;;;;4917435;28;92825;-65
2022/02/21 08:11:07;;;;;;;1.90;0.67;;;6.80;91.80;6.40;98582.00;;;;4930794;28;111532;-66
2022/02/21 08:13:32;;;;;;;1.00;0.30;;;6.60;93.00;6.30;98610.00;;;;4917687;28;93754;-65
2022/02/21 08:15:58;;;;;;;0.40;0.40;;;6.90;94.50;6.30;98611.00;;;;4916598;28;92979;-66
2022/02/21 08:18:24;;;;;;;0.33;0.30;;;6.40;95.20;6.50;98615.00;;;;4916199;28;122540;-66
2022/02/21 08:20:50;;;;;;;0.27;0.27;;;6.60;95.60;6.70;98597.00;;;;4915150;28;92993;-66
2022/02/21 08:23:16;;;;;;;1.03;0.57;;;6.80;95.30;7.00;98614.00;;;;4917168;28;92953;-66
2022/02/21 08:25:41;;;;;;;0.73;0.30;;;7.20;95.00;7.10;98621.00;;;;4924587;28;94484;-66
2022/02/21 08:28:07;;;;;;;2.57;0.43;;;7.10;94.50;7.30;98626.00;;;;4917911;28;93105;-66
2022/02/21 08:30:33;;;;;;;2.57;0.63;;;7.70;94.20;7.50;98632.00;;;;4937958;28;92217;-67
2022/02/21 08:32:58;;;;;;;1.03;0.40;;;7.50;93.90;7.80;98622.00;;;;4925564;28;108401;-66
2022/02/21 08:35:24;;;;;;;0.13;0.13;;;7.80;92.20;8.00;98611.00;;;;4914858;28;122020;-66
2022/02/21 08:37:50;;;;;;;0.43;0.37;;;8.00;90.60;8.00;98625.00;;;;4915621;28;122691;-66
2022/02/21 08:40:18;;;;;;;0.47;0.47;;;8.10;90.10;8.10;98620.00;;;;4935774;28;92860;-65
2022/02/21 08:42:45;;;;;;;2.80;1.03;;;8.10;88.80;8.10;98645.00;;;;4922357;28;92754;-68
2022/02/21 08:45:12;;;;;;;2.23;0.50;;;8.20;89.30;8.30;98652.00;;;;4916478;28;93880;-66
2022/02/21 08:47:39;;;;;;;2.67;0.70;;;8.30;86.70;8.20;98637.00;;;;4916784;28;92795;-65
2022/02/21 08:50:10;;;;;;;4.77;0.60;;;8.30;85.10;8.20;98655.00;;;;4916779;28;93018;-66
2022/02/21 08:52:40;;;;;;;2.63;0.70;;;8.30;83.90;8.10;98662.00;;;;4918415;28;93522;-65
2022/02/21 08:55:10;;;;;;;2.63;1.17;;;8.20;83.30;7.90;98670.00;;;;4927799;28;92313;-65
2022/02/21 08:57:38;;;;;;;7.60;1.07;;;8.10;84.10;7.80;98670.00;;;;4935075;28;93305;-66
2022/02/21 09:00:06;;;;;;;3.40;0.80;;;8.00;85.00;7.80;98694.00;;;;4914928;28;92877;-65
2022/02/21 09:02:32;;;;;;;1.70;0.70;;;7.90;86.10;7.70;98668.00;;;;4915896;28;93762;-65
2022/02/21 09:04:58;;;;;;;2.33;0.63;;;7.90;84.40;7.50;98691.00;;;;4914348;28;122958;-65
2022/02/21 09:07:23;;;;;;;1.60;0.63;;;7.50;84.00;7.40;98685.00;;;;4915455;28;93638;-65
2022/02/21 09:09:49;;;;;;;2.53;0.63;;;7.60;85.00;7.50;98689.00;;;;4923713;28;92842;-66
2022/02/21 09:12:15;;;;;;;4.63;0.80;;;7.50;85.30;7.60;98690.00;;;;4934980;28;108746;-65
2022/02/21 09:14:46;;;;;;;1.40;0.70;;;7.60;84.20;7.70;98690.00;;;;4933532;28;122616;-65
2022/02/21 09:17:12;;;;;;;2.63;0.97;;;7.70;84.80;7.90;98701.00;;;;4927590;28;94057;-65
2022/02/21 09:19:38;;;;;;;3.37;0.70;;;7.90;82.10;7.70;98705.00;;;;4915649;28;109512;-65
2022/02/21 09:22:03;;;;;;;0.90;0.83;;;7.80;80.50;7.50;98700.00;;;;4913528;28;108953;-65
2022/02/21 09:24:29;;;;;;;0.83;0.57;;;7.70;81.00;7.60;98702.00;;;;4914765;28;122102;-67
2022/02/21 09:26:55;;;;;;;1.80;0.97;;;7.70;82.20;7.60;98709.00;;;;4931580;28;114927;-64
2022/02/21 09:29:21;;;;;;;0.60;0.47;;;7.60;81.90;7.50;98699.00;;;;4933273;28;110576;-65
2022/02/21 09:31:46;;;;;;;6.10;1.23;;;7.80;81.50;7.40;98705.00;;;;4935844;28;92749;-65
2022/02/21 09:34:12;;;;;;;0.30;0.30;;;7.50;82.00;7.30;98694.00;;;;4932703;28;123213;-64
2022/02/21 09:36:38;;;;;;;0.90;0.53;;;7.60;80.80;7.40;98711.00;;;;4933667;28;122340;-64
2022/02/21 09:39:04;;;;;;;5.03;0.90;;;7.80;81.90;7.50;98696.00;;;;4929277;28;92855;-65
2022/02/21 09:41:31;;;;;;;4.23;0.73;;;7.60;81.90;7.60;98705.00;;;;4914912;28;100268;-66
2022/02/21 09:43:58;;;;;;;0.50;0.50;;;7.60;81.70;7.60;98691.00;;;;4915224;28;108502;-66
2022/02/21 09:46:29;;;;;;;6.17;1.10;;;7.60;82.10;7.90;98697.00;;;;4914418;28;116573;-66
2022/02/21 09:48:59;;;;;;;5.07;1.23;;;7.80;82.10;8.10;98712.00;;;;4915600;28;93028;-65
2022/02/21 09:51:25;;;;;;;0.43;0.37;;;8.10;81.60;8.40;98720.00;;;;4915000;28;93842;-65
2022/02/21 09:53:51;;;;;;;1.90;0.87;;;8.40;82.20;8.50;98700.00;;;;4914667;28;93480;-66
2022/02/21 09:56:16;;;;;;;0.77;0.50;;;8.50;79.40;8.60;98719.00;;;;4933471;28;123530;-67
2022/02/21 09:58:42;;;;;;;2.57;0.50;;;8.60;78.90;8.70;98700.00;;;;4934936;28;102744;-66
2022/02/21 10:01:08;;;;;;;1.13;0.37;;;8.70;77.40;8.70;98720.00;;;;4932200;28;107700;-66
2022/02/21 10:03:37;;;;;;;0.53;0.47;;;8.70;76.80;8.50;98724.00;;;;4934269;28;93118;-66
2022/02/21 10:06:21;;;;;;;1.10;0.33;;;8.60;76.40;8.20;98717.00;;;;4934021;28;93681;-66
2022/02/21 10:09:12;;;;;;;0.80;0.53;;;8.40;76.60;7.90;98731.00;;;;4929718;28;92231;-66
2022/02/21 10:11:44;;;;;;;0.20;0.20;;;8.10;76.00;7.70;98709.00;;;;4914710;28;92801;-66
2022/02/21 10:14:13;;;;;;;0.70;0.40;;;7.90;77.50;7.50;98692.00;;;;4913205;28;93971;-65
2022/02/21 10:16:48;;;;;;;0.83;0.50;;;7.70;77.50;7.40;98731.00;;;;4928918;28;93708;-66
2022/02/21 10:19:20;;;;;;;1.40;0.60;;;7.60;77.90;7.30;98750.00;;;;4933793;28;93055;-66
2022/02/21 10:22:01;;;;;;;1.23;0.50;;;7.40;78.30;7.20;98757.00;;;;4933893;28;93247;-65
2022/02/21 10:24:50;;;;;;;1.07;0.47;;;7.30;79.00;7.20;98755.00;;;;4930900;28;93298;-66
2022/02/21 10:27:24;;;;;;;1.03;0.60;;;7.30;78.90;7.20;98770.00;;;;4931149;28;95521;-66
2022/02/21 10:29:52;;;;;;;1.07;0.80;;;7.30;79.20;7.30;98776.00;;;;4933206;28;92700;-67
2022/02/21 10:32:25;;;;;;;1.10;0.60;;;7.50;78.80;7.30;98770.00;;;;4932951;28;92766;-66
2022/02/21 10:34:53;;;;;;;1.37;0.70;;;7.40;74.40;7.30;98781.00;;;;4932164;28;93523;-65
2022/02/21 10:37:25;;;;;;;0.67;0.47;;;7.40;74.60;7.30;98779.00;;;;4916185;28;93024;-66
2022/02/21 10:40:10;;;;;;;1.33;0.83;;;7.40;73.70;7.10;98791.00;;;;4913226;28;92779;-66
2022/02/21 10:42:37;;;;;;;1.37;0.40;;;7.30;73.70;7.10;98803.00;;;;4913852;28;94017;-66
2022/02/21 10:45:16;;;;;;;3.77;0.73;;;7.30;74.80;6.90;98786.00;;;;4913329;28;94215;-66
2022/02/21 10:48:21;;;;;;;0.93;0.40;;;7.10;77.40;6.90;98795.00;;;;4913342;28;93295;-65
2022/02/21 10:51:02;;;;;;;1.80;0.50;;;7.60;78.60;7.00;98801.00;;;;4849279;28;93020;-66
2022/02/21 10:53:45;;;;;;;0.80;0.50;;;7.30;80.20;7.20;98792.00;;;;4907412;28;92894;-67
2022/02/21 10:56:12;;;;;;;0.83;0.50;;;7.20;79.50;7.30;98772.00;;;;4913140;28;93284;-66
2022/02/21 10:58:39;;;;;;;0.93;0.30;;;7.40;79.30;7.40;98783.00;;;;4911051;28;93346;-66
2022/02/21 11:01:07;;;;;;;3.27;0.63;;;7.50;78.50;7.40;98802.00;;;;4921464;28;92172;-66